Pierre, South Dakota
Current Conditions -  °F | °C
As of 11:53 AM on Monday 24 Nov 2014 (Local Time) from KPIR Reporting Station
Clear Clear  
Wind Chill: -10°   Ceiling: Unl
Heat Index: -3°   Visibility: 10mi
Dew Point: -12°   Wind: 16mph
Humidity: 51%   Direction: 330°NNW
Pressure: 29.89"   Gusts: NA
Location:  44.37°N, 100.35°W
Report Text: KPIR 241753Z AUTO 33014KT 10SM CLR M03/M12 A2989 RMK AO2 SLP145 T10331122 11033 21078 51026
Loading
Personal Weather Stations






























Interactive Weather Map New forecast layout! Learn more

10-Day Weather Forecast

Advertisements
Track Severe Weather on mobile